Time;durP1;ratioP1;P1;durP2;ratioP2;P2;SDS_P1;SDS_P2;PMS_P1;PMS_P2;Temp;Humidity;BMP_temperature;BMP_pressure;BME280_temperature;BME280_humidity;BME280_pressure;Samples;Min_cycle;Max_cycle;Signal;HPM_P1;HPM_P2
2022/06/27 00:02:15;;;;;;;8.02;7.22;;;19.80;99.90;;;;;;5090529;28;20265;-51
2022/06/27 00:04:43;;;;;;;10.35;8.45;;;19.90;99.90;;;;;;5090553;28;20274;-51
2022/06/27 00:07:11;;;;;;;9.52;8.10;;;19.80;99.90;;;;;;5090826;28;20257;-51
2022/06/27 00:09:40;;;;;;;8.32;7.50;;;19.80;99.90;;;;;;5090806;28;20282;-51
2022/06/27 00:12:09;;;;;;;8.52;7.72;;;19.80;99.90;;;;;;5090776;28;20226;-51
2022/06/27 00:14:37;;;;;;;7.97;7.18;;;19.70;99.90;;;;;;5090466;28;20242;-51
2022/06/27 00:17:07;;;;;;;11.95;8.23;;;19.60;99.90;;;;;;5090564;28;20248;-51
2022/06/27 00:19:35;;;;;;;8.70;7.78;;;19.50;99.90;;;;;;5090525;28;20235;-50
2022/06/27 00:22:04;;;;;;;8.63;7.53;;;19.50;99.90;;;;;;5090579;28;20258;-51
2022/06/27 00:24:33;;;;;;;8.70;7.80;;;19.40;99.90;;;;;;5090407;28;20260;-50
2022/06/27 00:27:01;;;;;;;8.48;7.63;;;19.40;99.90;;;;;;5090940;28;20254;-51
2022/06/27 00:29:29;;;;;;;8.30;7.35;;;19.30;99.90;;;;;;5090668;28;20224;-51
2022/06/27 00:31:57;;;;;;;8.25;7.43;;;19.30;99.90;;;;;;5090190;28;20722;-51
2022/06/27 00:34:27;;;;;;;8.25;7.45;;;19.20;99.90;;;;;;5090137;28;20200;-52
2022/06/27 00:36:55;;;;;;;9.38;8.50;;;19.30;99.90;;;;;;5090098;28;20242;-51
2022/06/27 00:39:23;;;;;;;10.30;9.02;;;19.30;99.90;;;;;;5090056;28;20306;-51
2022/06/27 00:41:51;;;;;;;12.82;9.23;;;19.30;99.90;;;;;;5085589;28;20237;-50
2022/06/27 00:44:36;;;;;;;9.98;8.98;;;19.20;99.90;;;;;;5081422;28;20256;-51
2022/06/27 00:47:06;;;;;;;12.15;9.80;;;19.20;99.90;;;;;;5075367;28;20203;-50
2022/06/27 00:49:36;;;;;;;12.57;9.65;;;19.00;99.90;;;;;;5089515;28;20231;-50
2022/06/27 00:52:08;;;;;;;17.17;12.75;;;18.90;99.90;;;;;;5090234;28;20208;-51
2022/06/27 00:54:38;;;;;;;14.43;12.98;;;18.80;99.90;;;;;;5089582;28;20200;-49
2022/06/27 00:57:06;;;;;;;13.85;12.40;;;18.80;99.90;;;;;;5096483;28;20722;-51
2022/06/27 00:59:36;;;;;;;14.43;12.93;;;18.80;99.90;;;;;;5094319;28;20280;-51
2022/06/27 01:02:04;;;;;;;16.75;12.43;;;18.80;99.90;;;;;;5104069;28;20254;-50
2022/06/27 01:04:37;;;;;;;16.85;13.85;;;18.80;99.90;;;;;;5108751;28;20227;-52
2022/06/27 01:07:06;;;;;;;16.38;13.63;;;18.80;99.90;;;;;;5116638;28;20219;-51
2022/06/27 01:09:42;;;;;;;17.13;14.20;;;18.80;99.90;;;;;;5110601;28;20233;-51
2022/06/27 01:12:11;;;;;;;16.98;14.15;;;18.80;99.90;;;;;;5110523;28;20259;-51
2022/06/27 01:14:39;;;;;;;17.20;13.40;;;18.70;99.90;;;;;;5109906;28;20203;-50
2022/06/27 01:17:07;;;;;;;17.88;13.85;;;18.80;99.90;;;;;;5109752;28;20239;-50
2022/06/27 01:19:37;;;;;;;15.88;13.82;;;18.80;99.90;;;;;;5110312;28;20227;-51
2022/06/27 01:22:08;;;;;;;14.07;12.50;;;18.90;99.90;;;;;;5110202;28;20204;-50
2022/06/27 01:24:36;;;;;;;16.58;13.20;;;18.90;99.90;;;;;;5109404;28;20615;-50
2022/06/27 01:27:05;;;;;;;14.30;12.90;;;18.80;99.90;;;;;;5110649;28;20732;-50
2022/06/27 01:29:33;;;;;;;14.45;10.85;;;18.80;99.90;;;;;;5109065;28;20255;-51
2022/06/27 01:32:01;;;;;;;15.07;12.77;;;18.90;99.90;;;;;;5109528;28;20276;-51
2022/06/27 01:34:29;;;;;;;16.15;12.00;;;18.90;99.90;;;;;;5109958;28;20305;-51
2022/06/27 01:36:57;;;;;;;15.27;12.40;;;18.90;99.90;;;;;;5109260;28;20632;-50
2022/06/27 01:39:28;;;;;;;14.25;12.75;;;18.90;99.90;;;;;;5109820;28;20256;-52
2022/06/27 01:41:58;;;;;;;15.43;12.68;;;18.90;99.90;;;;;;5096280;28;20624;-51
2022/06/27 01:44:29;;;;;;;13.10;11.80;;;18.90;99.90;;;;;;5109920;28;20251;-50
2022/06/27 01:47:02;;;;;;;13.32;12.02;;;18.90;99.90;;;;;;5109717;28;20227;-50
2022/06/27 01:49:33;;;;;;;13.02;10.80;;;18.90;99.90;;;;;;5109583;28;20227;-51
2022/06/27 01:52:02;;;;;;;11.90;10.70;;;18.90;99.90;;;;;;5109086;28;20243;-51
2022/06/27 01:54:34;;;;;;;13.30;11.52;;;18.90;99.90;;;;;;5109275;28;20660;-51
2022/06/27 01:57:04;;;;;;;13.48;11.43;;;18.90;99.90;;;;;;5109967;28;20229;-51
2022/06/27 01:59:33;;;;;;;12.48;11.27;;;18.90;99.90;;;;;;5109646;28;20739;-51
2022/06/27 02:02:02;;;;;;;13.15;10.70;;;18.80;99.90;;;;;;5098719;28;20232;-51
2022/06/27 02:04:32;;;;;;;14.38;11.43;;;18.80;99.90;;;;;;5109144;28;20754;-51
2022/06/27 02:07:01;;;;;;;13.23;11.93;;;18.80;99.90;;;;;;5109512;28;20238;-51
2022/06/27 02:09:29;;;;;;;11.38;10.38;;;18.70;99.90;;;;;;5109027;28;20262;-51
2022/06/27 02:12:18;;;;;;;12.05;10.70;;;18.70;99.90;;;;;;5109424;28;20235;-50
2022/06/27 02:14:47;;;;;;;11.95;10.73;;;18.60;99.90;;;;;;5109838;28;20192;-51
2022/06/27 02:17:16;;;;;;;10.80;9.70;;;18.50;99.90;;;;;;5109394;28;20792;-51
2022/06/27 02:19:44;;;;;;;12.48;11.02;;;18.50;99.90;;;;;;5109171;28;20763;-51
2022/06/27 02:22:14;;;;;;;10.23;9.23;;;18.50;99.90;;;;;;5109709;28;20246;-50
2022/06/27 02:24:43;;;;;;;10.52;9.52;;;18.50;99.90;;;;;;5075196;28;20280;-51
2022/06/27 02:27:12;;;;;;;11.45;10.35;;;18.50;99.90;;;;;;5102511;28;20212;-50
2022/06/27 02:29:40;;;;;;;10.65;9.65;;;18.60;99.90;;;;;;5112106;28;20219;-51
2022/06/27 02:32:09;;;;;;;10.02;9.02;;;18.60;99.90;;;;;;5112546;28;20756;-50
2022/06/27 02:34:38;;;;;;;10.70;9.60;;;18.50;99.90;;;;;;5113069;28;20238;-52
2022/06/27 02:37:08;;;;;;;10.90;9.57;;;18.50;99.90;;;;;;5112229;28;20203;-50
2022/06/27 02:39:40;;;;;;;10.52;9.10;;;18.50;99.90;;;;;;5112473;28;20276;-50
2022/06/27 02:42:09;;;;;;;10.07;9.13;;;18.50;99.90;;;;;;5092419;28;20203;-51
2022/06/27 02:44:39;;;;;;;10.55;9.50;;;18.50;99.90;;;;;;5113044;28;20594;-50
2022/06/27 02:47:08;;;;;;;10.23;8.10;;;18.50;99.90;;;;;;5112551;28;20733;-51
2022/06/27 02:49:36;;;;;;;9.20;8.30;;;18.50;99.90;;;;;;5111995;28;20302;-50
2022/06/27 02:52:10;;;;;;;8.20;7.47;;;18.50;99.90;;;;;;5101065;28;20231;-51
2022/06/27 02:54:42;;;;;;;7.95;7.30;;;18.50;99.90;;;;;;5112254;28;20281;-50
2022/06/27 02:57:18;;;;;;;7.07;6.40;;;18.50;99.90;;;;;;5112898;28;20207;-51
2022/06/27 02:59:49;;;;;;;7.68;6.90;;;18.50;99.90;;;;;;5111984;28;20255;-51
2022/06/27 03:02:18;;;;;;;8.13;7.32;;;18.50;99.90;;;;;;5104964;28;20277;-51
2022/06/27 03:04:46;;;;;;;7.85;7.15;;;18.60;99.90;;;;;;5112402;28;20574;-51
2022/06/27 03:07:14;;;;;;;8.73;7.97;;;18.70;99.90;;;;;;5112040;28;20239;-51
2022/06/27 03:09:42;;;;;;;9.25;8.45;;;18.70;99.90;;;;;;5112264;28;20232;-51
2022/06/27 03:12:10;;;;;;;8.05;7.35;;;18.60;99.90;;;;;;5112201;28;20207;-51
2022/06/27 03:14:38;;;;;;;8.25;6.97;;;18.70;99.90;;;;;;5111983;28;20825;-51
2022/06/27 03:17:08;;;;;;;10.25;7.88;;;18.70;99.90;;;;;;5109986;28;20570;-52
2022/06/27 03:19:37;;;;;;;8.48;7.60;;;18.70;99.90;;;;;;5098510;28;20761;-51
2022/06/27 03:22:05;;;;;;;9.60;8.70;;;18.70;99.90;;;;;;5112092;28;20248;-51
2022/06/27 03:24:33;;;;;;;10.75;8.60;;;18.70;99.90;;;;;;5110439;28;20400;-52
2022/06/27 03:27:01;;;;;;;9.93;8.88;;;18.70;99.90;;;;;;5109872;28;20243;-50
2022/06/27 03:29:30;;;;;;;9.15;8.25;;;18.70;99.90;;;;;;5109546;28;20696;-51
2022/06/27 03:31:58;;;;;;;10.13;9.23;;;18.70;99.90;;;;;;5109909;28;20208;-50
2022/06/27 03:34:27;;;;;;;8.43;7.63;;;18.70;99.90;;;;;;5109679;28;20260;-50
2022/06/27 03:36:55;;;;;;;7.75;7.13;;;18.70;99.90;;;;;;5109922;28;20257;-51
2022/06/27 03:39:24;;;;;;;7.30;6.70;;;18.70;99.90;;;;;;5109688;28;20743;-51
2022/06/27 03:41:52;;;;;;;6.95;6.35;;;18.70;99.90;;;;;;5111483;28;20246;-51
2022/06/27 03:44:20;;;;;;;7.88;6.78;;;18.70;99.90;;;;;;5110972;28;20200;-52
2022/06/27 03:46:48;;;;;;;7.47;6.80;;;18.70;99.90;;;;;;5111120;28;20211;-51
2022/06/27 03:52:04;;;;;;;10.60;9.60;;;18.80;99.90;;;;;;5077947;28;20745;-49
2022/06/27 03:54:32;;;;;;;9.52;8.73;;;18.70;99.90;;;;;;5070286;28;20236;-51
2022/06/27 03:57:00;;;;;;;10.65;9.65;;;18.70;99.90;;;;;;5073036;28;20232;-51
2022/06/27 03:59:28;;;;;;;11.32;9.85;;;18.70;99.90;;;;;;5072193;28;20225;-50
2022/06/27 04:01:56;;;;;;;12.77;11.27;;;18.70;99.90;;;;;;5077561;28;20205;-51
2022/06/27 04:04:24;;;;;;;11.90;10.80;;;18.70;99.90;;;;;;5072348;28;20216;-51
2022/06/27 04:06:53;;;;;;;12.02;10.40;;;18.70;99.90;;;;;;5070992;28;20236;-51
2022/06/27 04:09:22;;;;;;;12.98;10.80;;;18.70;99.90;;;;;;5076858;28;20256;-51
2022/06/27 04:11:50;;;;;;;10.63;9.60;;;18.70;99.90;;;;;;5076776;28;20655;-51
2022/06/27 04:14:18;;;;;;;12.32;11.13;;;18.60;99.90;;;;;;5089650;28;20243;-52
2022/06/27 04:16:47;;;;;;;11.32;10.15;;;18.70;99.90;;;;;;5075107;28;20203;-51
2022/06/27 04:19:15;;;;;;;11.20;10.18;;;18.70;99.90;;;;;;5075267;28;20701;-52
2022/06/27 04:21:43;;;;;;;10.35;9.43;;;18.70;99.90;;;;;;5073937;28;20348;-50
2022/06/27 04:24:11;;;;;;;12.73;9.85;;;18.70;99.90;;;;;;5073877;28;20641;-49
2022/06/27 04:26:41;;;;;;;10.63;9.57;;;18.70;99.90;;;;;;5071309;28;20772;-50
2022/06/27 04:29:09;;;;;;;11.27;10.18;;;18.70;99.90;;;;;;5072297;28;20224;-52
2022/06/27 04:31:37;;;;;;;9.98;8.98;;;18.60;99.90;;;;;;5078693;28;20200;-53
2022/06/27 04:34:05;;;;;;;9.80;8.65;;;18.50;99.90;;;;;;5083154;28;20213;-50
2022/06/27 04:36:33;;;;;;;9.68;8.70;;;18.60;99.90;;;;;;5075162;28;20224;-51
2022/06/27 04:39:03;;;;;;;10.52;9.40;;;18.70;99.90;;;;;;5077600;28;20225;-51
2022/06/27 04:41:31;;;;;;;9.82;8.93;;;18.70;99.90;;;;;;5076056;28;20205;-51
2022/06/27 04:44:00;;;;;;;10.23;9.23;;;18.80;99.90;;;;;;5075165;28;20680;-51
2022/06/27 04:46:29;;;;;;;10.85;9.85;;;18.80;99.90;;;;;;5079523;28;20259;-52
2022/06/27 04:48:58;;;;;;;10.15;8.95;;;18.80;99.90;;;;;;5077040;28;20208;-49
2022/06/27 04:51:26;;;;;;;11.10;10.10;;;18.80;99.90;;;;;;5087273;28;20200;-51
2022/06/27 04:53:54;;;;;;;11.98;10.65;;;18.90;99.90;;;;;;5087143;28;20317;-52
2022/06/27 04:56:22;;;;;;;10.85;9.75;;;18.90;99.90;;;;;;5087324;28;20228;-51
2022/06/27 04:58:50;;;;;;;10.30;9.23;;;19.00;99.90;;;;;;5087392;28;20268;-51
2022/06/27 05:01:20;;;;;;;10.70;9.68;;;19.10;99.90;;;;;;5088282;28;20230;-50
2022/06/27 05:03:48;;;;;;;10.98;9.85;;;19.10;99.90;;;;;;5077987;28;20203;-51
2022/06/27 05:06:16;;;;;;;10.52;9.55;;;19.10;99.90;;;;;;5105839;28;20224;-51
2022/06/27 05:08:44;;;;;;;10.90;9.80;;;19.20;99.90;;;;;;5104865;28;20208;-50
2022/06/27 05:11:13;;;;;;;11.05;10.05;;;19.30;99.90;;;;;;5110243;28;20909;-50
2022/06/27 05:13:41;;;;;;;10.38;9.48;;;19.30;99.90;;;;;;5103644;28;20246;-51
2022/06/27 05:16:09;;;;;;;10.75;9.60;;;19.40;99.90;;;;;;5070372;28;20227;-50
2022/06/27 05:18:41;;;;;;;10.70;9.40;;;19.40;99.90;;;;;;5080569;28;20251;-51
2022/06/27 05:21:30;;;;;;;10.52;9.20;;;19.40;99.90;;;;;;5106060;28;20242;-50
2022/06/27 05:23:58;;;;;;;9.65;8.85;;;19.50;99.90;;;;;;5086614;28;20208;-50
2022/06/27 05:26:26;;;;;;;10.32;8.95;;;19.60;99.90;;;;;;5086082;28;20251;-53
2022/06/27 05:28:55;;;;;;;9.45;8.55;;;19.60;99.90;;;;;;5080915;28;20204;-50
2022/06/27 05:31:23;;;;;;;10.30;8.80;;;19.70;99.90;;;;;;5086088;28;20735;-51
2022/06/27 05:33:53;;;;;;;10.38;9.30;;;20.00;99.90;;;;;;5077963;28;20287;-51
2022/06/27 05:36:21;;;;;;;8.88;8.02;;;20.40;99.90;;;;;;5084116;28;20239;-51
2022/06/27 05:38:50;;;;;;;8.80;8.00;;;20.70;99.90;;;;;;5078396;28;20269;-50
2022/06/27 05:41:18;;;;;;;8.45;7.72;;;21.00;99.90;;;;;;5080857;28;20212;-51
2022/06/27 05:43:46;;;;;;;8.18;7.35;;;21.20;99.90;;;;;;5080920;28;20244;-51
2022/06/27 05:46:15;;;;;;;9.65;7.97;;;21.40;99.90;;;;;;5084683;28;20252;-51
2022/06/27 05:48:44;;;;;;;8.32;7.57;;;21.60;99.90;;;;;;5082446;28;20238;-50
2022/06/27 05:51:13;;;;;;;7.75;7.05;;;21.90;99.90;;;;;;5087204;28;20208;-51
2022/06/27 05:53:43;;;;;;;8.20;7.47;;;22.10;99.90;;;;;;5085727;28;20240;-51
2022/06/27 05:56:11;;;;;;;9.38;8.38;;;22.30;99.90;;;;;;5081200;28;20243;-51
2022/06/27 05:58:39;;;;;;;11.43;7.80;;;22.70;99.90;;;;;;5080700;28;20212;-51
2022/06/27 06:01:09;;;;;;;9.50;6.80;;;23.10;99.90;;;;;;5086246;28;20212;-51
2022/06/27 06:03:37;;;;;;;7.95;7.10;;;23.50;99.90;;;;;;5089033;28;20212;-51
2022/06/27 06:06:06;;;;;;;7.93;7.13;;;23.90;99.90;;;;;;5110630;28;20216;-51
2022/06/27 06:08:36;;;;;;;6.97;6.32;;;24.30;99.90;;;;;;5111111;28;20223;-51
2022/06/27 06:11:04;;;;;;;8.55;6.63;;;24.90;99.90;;;;;;5111104;28;20302;-50
2022/06/27 06:13:32;;;;;;;7.57;6.78;;;25.10;99.90;;;;;;5111018;28;20761;-51
2022/06/27 06:16:00;;;;;;;7.55;6.63;;;24.80;99.90;;;;;;5110260;28;20196;-51
2022/06/27 06:18:29;;;;;;;7.32;6.80;;;24.20;99.90;;;;;;5110907;28;20219;-51
2022/06/27 06:20:57;;;;;;;9.73;7.20;;;23.70;99.90;;;;;;5110745;28;20258;-51
2022/06/27 06:23:25;;;;;;;7.60;6.82;;;23.40;99.90;;;;;;5110303;28;20243;-50
2022/06/27 06:25:55;;;;;;;8.48;7.68;;;23.10;99.90;;;;;;5110859;28;20204;-51
2022/06/27 06:28:23;;;;;;;9.10;8.30;;;22.90;99.90;;;;;;5103344;28;20216;-51
2022/06/27 06:30:51;;;;;;;7.55;6.95;;;22.90;99.90;;;;;;5087979;28;20224;-51
2022/06/27 06:33:19;;;;;;;8.27;7.47;;;23.00;99.90;;;;;;5089587;28;20203;-51
2022/06/27 06:35:47;;;;;;;8.20;7.50;;;23.30;99.90;;;;;;5089843;28;20244;-51
2022/06/27 06:38:15;;;;;;;8.13;7.45;;;23.70;99.90;;;;;;5085672;28;20201;-51
2022/06/27 06:40:44;;;;;;;8.00;7.30;;;24.60;99.90;;;;;;5089201;28;20227;-51
2022/06/27 06:43:13;;;;;;;7.75;6.97;;;25.60;99.90;;;;;;5089120;28;20709;-51
2022/06/27 06:45:41;;;;;;;8.48;7.68;;;26.20;99.90;;;;;;5089243;28;20238;-51
2022/06/27 06:48:11;;;;;;;7.82;7.05;;;26.70;99.90;;;;;;5088771;28;20230;-52
2022/06/27 06:50:46;;;;;;;8.05;7.35;;;26.90;99.90;;;;;;5093242;28;20228;-51
2022/06/27 06:53:15;;;;;;;7.25;6.65;;;26.70;99.90;;;;;;5091624;28;20204;-51
2022/06/27 06:55:44;;;;;;;6.70;6.15;;;26.50;99.90;;;;;;5091812;28;20204;-52
2022/06/27 06:58:13;;;;;;;9.40;7.38;;;26.50;99.90;;;;;;5094189;28;20222;-50
2022/06/27 07:00:41;;;;;;;7.28;6.68;;;26.30;99.90;;;;;;5092653;28;20523;-51
2022/06/27 07:03:10;;;;;;;7.65;6.32;;;25.90;99.90;;;;;;5092029;28;20216;-51
2022/06/27 07:05:41;;;;;;;7.25;6.55;;;25.60;99.90;;;;;;5095476;28;20208;-51
2022/06/27 07:08:10;;;;;;;10.30;7.93;;;25.40;99.90;;;;;;5091374;28;20212;-51
2022/06/27 07:10:38;;;;;;;8.38;7.43;;;25.30;99.90;;;;;;5091940;28;20231;-51
2022/06/27 07:13:07;;;;;;;7.60;6.65;;;25.30;99.90;;;;;;5092929;28;20215;-51
2022/06/27 07:15:38;;;;;;;8.18;6.93;;;25.00;99.90;;;;;;5090834;28;20265;-50
2022/06/27 07:18:12;;;;;;;8.07;7.10;;;24.90;99.90;;;;;;5091283;28;20207;-50
2022/06/27 07:20:40;;;;;;;11.25;7.63;;;24.70;99.90;;;;;;5083757;28;20575;-51
2022/06/27 07:23:09;;;;;;;8.80;7.45;;;24.50;99.90;;;;;;5085465;28;20261;-50
2022/06/27 07:25:38;;;;;;;10.88;7.82;;;24.20;99.90;;;;;;5089043;28;20288;-51
2022/06/27 07:28:07;;;;;;;9.00;8.10;;;24.10;99.90;;;;;;5087224;28;20216;-50
2022/06/27 07:30:37;;;;;;;9.23;8.35;;;23.90;99.90;;;;;;5089483;28;20228;-50
2022/06/27 07:33:07;;;;;;;9.23;8.20;;;23.80;99.90;;;;;;5089660;28;20235;-51
2022/06/27 07:35:35;;;;;;;9.38;8.48;;;23.70;99.90;;;;;;5090334;28;20208;-51
2022/06/27 07:38:04;;;;;;;7.13;6.53;;;23.70;99.90;;;;;;5090057;28;20261;-51
2022/06/27 07:40:33;;;;;;;8.25;7.45;;;23.60;99.90;;;;;;5090828;28;20224;-50
2022/06/27 07:43:01;;;;;;;8.15;7.45;;;23.50;99.90;;;;;;5083230;28;20205;-51
2022/06/27 07:45:29;;;;;;;9.43;8.52;;;23.30;99.90;;;;;;5090230;28;20208;-52
2022/06/27 07:47:59;;;;;;;8.60;7.90;;;23.20;99.90;;;;;;5089866;28;20224;-51
2022/06/27 07:50:38;;;;;;;8.70;7.75;;;23.20;99.90;;;;;;5089283;28;20744;-50
2022/06/27 07:53:14;;;;;;;7.68;6.97;;;23.10;99.90;;;;;;5085875;28;20319;-50
2022/06/27 07:55:46;;;;;;;7.57;6.82;;;23.20;99.90;;;;;;5085452;28;20200;-51
2022/06/27 07:58:16;;;;;;;8.52;7.57;;;23.20;99.90;;;;;;5085182;28;20254;-52
2022/06/27 08:00:47;;;;;;;8.07;7.38;;;23.30;99.90;;;;;;5088562;28;20238;-51
2022/06/27 08:03:39;;;;;;;7.90;7.20;;;23.30;99.90;;;;;;5088074;28;20215;-51
2022/06/27 08:06:11;;;;;;;7.78;7.07;;;23.30;99.90;;;;;;5088740;28;20717;-49
2022/06/27 08:08:42;;;;;;;8.82;7.95;;;23.40;99.90;;;;;;5088787;28;20224;-49
2022/06/27 08:11:11;;;;;;;8.00;7.30;;;23.30;99.90;;;;;;5094069;28;20269;-51
2022/06/27 08:13:41;;;;;;;8.00;7.30;;;23.10;99.90;;;;;;5095533;28;20228;-51
2022/06/27 08:16:12;;;;;;;7.13;6.53;;;23.10;99.90;;;;;;5098797;28;20200;-50
2022/06/27 08:18:44;;;;;;;7.80;7.20;;;23.10;99.90;;;;;;5095982;28;20778;-51
2022/06/27 08:21:13;;;;;;;8.18;7.47;;;23.20;99.90;;;;;;5089891;28;20247;-51
2022/06/27 08:23:41;;;;;;;8.80;8.00;;;23.40;99.90;;;;;;5089116;28;20204;-50
2022/06/27 08:26:10;;;;;;;8.80;8.00;;;23.80;99.90;;;;;;5086251;28;20265;-50
2022/06/27 08:28:40;;;;;;;8.25;7.00;;;24.20;99.90;;;;;;5087317;28;20228;-50
2022/06/27 08:31:10;;;;;;;6.90;6.30;;;24.90;99.90;;;;;;5087336;28;20212;-51
2022/06/27 08:33:41;;;;;;;6.57;6.07;;;25.20;99.90;;;;;;5087414;28;20214;-52
2022/06/27 08:36:10;;;;;;;7.10;6.40;;;25.00;99.90;;;;;;5088207;28;20204;-51
2022/06/27 08:38:42;;;;;;;7.63;6.93;;;24.90;99.90;;;;;;5090094;28;20197;-51
2022/06/27 08:41:12;;;;;;;7.00;6.00;;;24.80;99.90;;;;;;5088952;28;20235;-51
2022/06/27 08:43:41;;;;;;;6.50;5.85;;;24.90;99.90;;;;;;5089343;28;20242;-53
2022/06/27 08:46:13;;;;;;;6.68;6.07;;;25.20;99.90;;;;;;5085632;28;20278;-51
2022/06/27 08:48:45;;;;;;;5.95;5.45;;;25.40;99.90;;;;;;5084787;28;20224;-50
2022/06/27 08:51:14;;;;;;;7.00;6.30;;;25.60;99.90;;;;;;5079343;28;20281;-51
2022/06/27 08:53:42;;;;;;;6.60;5.85;;;25.80;99.90;;;;;;5087579;28;20286;-50
2022/06/27 08:56:14;;;;;;;5.68;5.05;;;25.80;99.90;;;;;;5087134;28;20240;-52
2022/06/27 08:58:46;;;;;;;5.07;4.68;;;25.60;99.90;;;;;;5084863;28;20231;-51
2022/06/27 09:01:15;;;;;;;5.40;4.88;;;25.50;99.90;;;;;;5086749;28;20212;-52
2022/06/27 09:04:00;;;;;;;5.60;5.10;;;25.30;99.90;;;;;;5086711;28;20200;-51
2022/06/27 09:06:31;;;;;;;5.57;5.03;;;25.40;99.90;;;;;;5085773;28;20212;-51
2022/06/27 09:09:06;;;;;;;5.90;5.35;;;25.20;99.90;;;;;;5088406;28;20306;-51
2022/06/27 09:11:37;;;;;;;5.78;5.20;;;25.10;99.90;;;;;;5088801;28;20283;-51
2022/06/27 09:14:07;;;;;;;5.57;5.07;;;25.40;99.90;;;;;;5090503;28;20664;-52
2022/06/27 09:16:36;;;;;;;5.88;5.38;;;25.80;99.90;;;;;;5086846;28;20208;-52
2022/06/27 09:19:11;;;;;;;6.10;5.60;;;25.90;99.90;;;;;;5090276;28;20266;-52
2022/06/27 09:21:39;;;;;;;6.10;5.47;;;25.70;99.90;;;;;;5087100;28;20576;-51
2022/06/27 09:24:09;;;;;;;6.07;5.35;;;25.70;99.90;;;;;;5091363;28;20212;-51
2022/06/27 09:26:38;;;;;;;6.30;5.78;;;26.20;99.90;;;;;;5087263;28;20204;-51
2022/06/27 09:29:09;;;;;;;6.20;5.70;;;26.60;99.90;;;;;;5089170;28;20311;-51
2022/06/27 09:31:42;;;;;;;7.38;6.68;;;27.00;99.90;;;;;;5091426;28;20658;-52
2022/06/27 09:34:15;;;;;;;7.53;6.90;;;26.70;99.90;;;;;;5084734;28;20208;-52
2022/06/27 09:36:47;;;;;;;7.25;6.65;;;26.40;99.90;;;;;;5090308;28;20721;-51
2022/06/27 09:39:24;;;;;;;7.15;6.55;;;26.00;99.90;;;;;;5091114;28;20265;-51
2022/06/27 09:41:56;;;;;;;8.13;7.43;;;25.90;99.90;;;;;;5092829;28;20665;-50
2022/06/27 09:44:28;;;;;;;6.97;6.38;;;25.80;99.90;;;;;;5092703;28;20226;-50
2022/06/27 09:47:04;;;;;;;7.10;6.15;;;25.80;99.90;;;;;;5094955;28;20280;-48
2022/06/27 09:49:35;;;;;;;7.40;6.72;;;25.80;99.90;;;;;;5089781;28;20281;-49
2022/06/27 09:52:07;;;;;;;6.88;6.28;;;25.80;99.90;;;;;;5092322;28;20235;-51
2022/06/27 09:54:37;;;;;;;5.95;5.45;;;25.70;99.90;;;;;;5091019;28;20208;-50
2022/06/27 09:57:07;;;;;;;5.45;4.95;;;25.80;99.90;;;;;;5092319;28;20337;-50
2022/06/27 09:59:44;;;;;;;5.97;5.47;;;26.40;99.90;;;;;;5093923;28;20230;-51
2022/06/27 10:02:16;;;;;;;5.88;5.28;;;26.80;99.90;;;;;;5090280;28;21442;-49
2022/06/27 10:04:48;;;;;;;5.88;5.38;;;26.90;99.90;;;;;;5095942;28;21202;-51
2022/06/27 10:07:19;;;;;;;5.95;4.53;;;26.80;99.90;;;;;;5091859;28;20207;-51
2022/06/27 10:09:53;;;;;;;7.10;5.72;;;26.70;99.90;;;;;;5091961;28;20228;-51
2022/06/27 10:12:27;;;;;;;6.65;4.90;;;26.80;99.90;;;;;;5093253;28;20219;-51
2022/06/27 10:15:23;;;;;;;4.80;4.50;;;27.10;99.90;;;;;;5091030;28;20657;-51
2022/06/27 10:17:54;;;;;;;5.63;5.18;;;27.00;99.90;;;;;;5082456;28;20262;-50
2022/06/27 10:20:32;;;;;;;5.55;5.05;;;26.80;99.90;;;;;;5091267;28;20307;-50
2022/06/27 10:23:25;;;;;;;5.80;4.95;;;26.60;99.90;;;;;;5091674;28;20292;-51
2022/06/27 10:25:54;;;;;;;5.85;5.25;;;26.50;99.90;;;;;;5092385;28;20208;-50
2022/06/27 10:28:23;;;;;;;5.38;4.88;;;26.60;99.90;;;;;;5091717;28;20231;-51
2022/06/27 10:30:53;;;;;;;5.78;5.20;;;26.90;99.90;;;;;;5089973;28;20228;-51
2022/06/27 10:33:40;;;;;;;5.60;5.10;;;26.90;99.90;;;;;;5092038;28;20228;-51
2022/06/27 10:36:13;;;;;;;5.68;5.15;;;26.80;99.90;;;;;;5095626;28;20233;-51
2022/06/27 10:38:53;;;;;;;4.93;4.47;;;27.00;99.90;;;;;;5090043;28;20579;-50
2022/06/27 10:41:39;;;;;;;4.70;4.30;;;27.30;99.90;;;;;;5091794;28;20269;-51
2022/06/27 10:44:32;;;;;;;3.80;3.50;;;27.40;99.90;;;;;;5089964;28;20207;-51
2022/06/27 10:47:01;;;;;;;3.88;3.35;;;27.30;99.90;;;;;;5092245;28;20208;-51
2022/06/27 10:49:31;;;;;;;4.07;3.70;;;27.30;99.90;;;;;;5092787;28;20270;-51
2022/06/27 10:52:34;;;;;;;4.28;3.95;;;27.30;99.90;;;;;;5093365;28;20213;-51
2022/06/27 10:55:20;;;;;;;5.03;4.00;;;27.20;99.90;;;;;;5095634;28;20719;-51
2022/06/27 10:57:49;;;;;;;6.32;4.32;;;27.10;99.90;;;;;;5096670;28;20204;-50
2022/06/27 11:00:47;;;;;;;5.10;4.60;;;27.00;99.90;;;;;;5094569;28;20713;-51
2022/06/27 11:03:23;;;;;;;4.68;4.20;;;27.10;99.90;;;;;;5094844;28;20209;-50
2022/06/27 11:06:00;;;;;;;5.10;4.60;;;27.10;99.90;;;;;;5093577;28;20278;-51
2022/06/27 11:08:32;;;;;;;4.38;4.07;;;26.80;99.90;;;;;;5089091;28;20269;-51
2022/06/27 11:11:01;;;;;;;4.43;4.03;;;26.70;99.90;;;;;;5091023;28;20236;-51
2022/06/27 11:13:37;;;;;;;4.55;3.70;;;26.40;99.90;;;;;;5091058;28;20702;-50
2022/06/27 11:16:06;;;;;;;4.00;3.60;;;26.30;99.90;;;;;;5087257;28;20207;-50
2022/06/27 11:18:45;;;;;;;4.78;3.20;;;26.10;99.90;;;;;;5085862;28;20250;-51
2022/06/27 11:21:15;;;;;;;3.90;3.13;;;26.00;99.90;;;;;;5088401;28;20637;-51
2022/06/27 11:23:53;;;;;;;2.60;2.40;;;26.10;99.90;;;;;;5087653;28;20677;-50
2022/06/27 11:26:23;;;;;;;2.47;2.20;;;26.30;99.90;;;;;;5085502;28;20212;-50
2022/06/27 11:34:28;;;;;;;4.13;2.22;;;26.30;99.90;;;;;;5089685;28;20234;-51
2022/06/27 11:36:58;;;;;;;2.65;2.45;;;26.30;99.90;;;;;;5080137;28;20204;-50
2022/06/27 11:39:29;;;;;;;2.47;2.28;;;26.60;99.90;;;;;;5085406;28;20228;-51
2022/06/27 11:41:59;;;;;;;3.88;2.38;;;26.70;99.90;;;;;;5087986;28;20247;-50
2022/06/27 11:44:28;;;;;;;2.50;2.30;;;26.60;99.90;;;;;;5090044;28;20646;-51
2022/06/27 11:47:08;;;;;;;4.53;2.30;;;26.60;99.90;;;;;;5089595;28;20259;-50
2022/06/27 11:49:37;;;;;;;2.38;2.17;;;26.70;99.90;;;;;;5089550;28;20232;-51
2022/06/27 11:52:14;;;;;;;3.28;2.40;;;26.80;99.90;;;;;;5089781;28;20215;-51
2022/06/27 11:54:46;;;;;;;2.50;2.28;;;26.90;99.90;;;;;;5089692;28;20208;-50
2022/06/27 11:57:25;;;;;;;2.88;2.30;;;27.10;99.90;;;;;;5091507;28;20265;-50
2022/06/27 11:59:54;;;;;;;3.13;2.80;;;27.10;99.90;;;;;;5090242;28;20231;-50
2022/06/27 12:02:30;;;;;;;3.75;2.90;;;27.00;99.90;;;;;;5090250;28;20213;-51
2022/06/27 12:05:07;;;;;;;3.20;2.83;;;26.90;99.90;;;;;;5091933;28;20204;-51
2022/06/27 12:07:56;;;;;;;3.85;2.58;;;26.90;99.90;;;;;;5095320;28;20212;-51
2022/06/27 12:10:45;;;;;;;3.10;2.60;;;26.80;99.90;;;;;;5090770;28;20224;-50
2022/06/27 12:13:15;;;;;;;2.70;2.50;;;26.80;99.90;;;;;;5091409;28;20287;-50
2022/06/27 12:15:46;;;;;;;3.53;2.50;;;26.60;99.90;;;;;;5084852;28;20715;-51
2022/06/27 12:18:15;;;;;;;2.65;2.45;;;26.40;99.90;;;;;;5089827;28;20212;-51
2022/06/27 12:20:45;;;;;;;2.78;2.58;;;26.10;99.90;;;;;;5091797;28;20224;-51
2022/06/27 12:23:14;;;;;;;2.92;2.72;;;25.90;99.90;;;;;;5085741;28;20211;-50
2022/06/27 12:25:44;;;;;;;3.90;3.45;;;25.70;99.90;;;;;;5092477;28;20696;-50
2022/06/27 12:28:12;;;;;;;3.38;2.80;;;25.40;99.90;;;;;;5088727;28;20212;-51
2022/06/27 12:30:40;;;;;;;3.38;2.80;;;25.30;99.90;;;;;;5091253;28;20532;-50
2022/06/27 12:33:09;;;;;;;3.05;2.75;;;25.10;99.90;;;;;;5089444;28;20208;-50
2022/06/27 12:35:37;;;;;;;3.45;3.20;;;25.00;99.90;;;;;;5088786;28;20204;-51
2022/06/27 12:38:07;;;;;;;5.43;4.05;;;25.00;99.90;;;;;;5087656;28;20236;-51
2022/06/27 12:40:36;;;;;;;3.90;3.50;;;25.30;99.90;;;;;;5088984;28;20610;-51
2022/06/27 12:43:06;;;;;;;6.95;5.10;;;25.60;99.90;;;;;;5086018;28;20204;-51
2022/06/27 12:45:36;;;;;;;6.18;4.28;;;25.90;99.90;;;;;;5089025;28;20243;-51
2022/06/27 12:48:05;;;;;;;5.10;3.78;;;26.10;99.90;;;;;;5087873;28;20211;-51
2022/06/27 12:50:34;;;;;;;6.40;5.88;;;26.00;99.90;;;;;;5083800;28;21048;-51
2022/06/27 12:53:03;;;;;;;6.38;5.53;;;25.90;99.90;;;;;;5088464;28;20212;-50
2022/06/27 12:55:31;;;;;;;4.20;3.80;;;25.70;99.90;;;;;;5090298;28;20219;-50
2022/06/27 12:57:59;;;;;;;4.00;3.70;;;25.70;99.90;;;;;;5088385;28;20208;-51
2022/06/27 13:00:29;;;;;;;5.47;4.78;;;25.70;99.90;;;;;;5090221;28;20224;-50
2022/06/27 13:02:57;;;;;;;5.05;4.55;;;25.60;99.90;;;;;;5088781;28;20219;-50
2022/06/27 13:05:31;;;;;;;4.72;4.32;;;25.40;99.90;;;;;;5090100;28;20693;-50
2022/06/27 13:08:00;;;;;;;5.20;4.53;;;25.20;99.90;;;;;;5090589;28;20251;-50
2022/06/27 13:10:28;;;;;;;4.80;4.20;;;24.90;99.90;;;;;;5088364;28;20570;-51